This is the latest recevied weather packets stored in our database for station/object OE3WYC-1. If no packets are shown the sender has not sent any weather packets the latest 10 day(s).
| Time | Temp. | Humidity | Pressure | Rain* | Wind** | Luminosity | Snow |
|---|---|---|---|---|---|---|---|
| 1777603204 | 5° C | 62% | 1028.2 hPa | 0 mm | - | - | - |
| 1777600504 | 5.56° C | 60% | 1028.3 hPa | 0 mm | - | - | - |
| 1777599904 | 5.56° C | 60% | 1028.2 hPa | 0 mm | - | - | - |
| 1777598705 | 6.11° C | 58% | 1028.2 hPa | 0 mm | - | - | - |
| 1777598104 | 6.11° C | 58% | 1028.1 hPa | 0 mm | - | - | - |
| 1777596604 | 6.11° C | 59% | 1028.1 hPa | 0 mm | - | - | - |
| 1777596004 | 6.11° C | 58% | 1028.1 hPa | 0 mm | - | - | - |
| 1777594804 | 6.11° C | 58% | 1028.2 hPa | 0 mm | - | - | - |
| 1777593304 | 6.11° C | 59% | 1028.1 hPa | 0 mm | - | - | - |
| 1777592705 | 6.11° C | 59% | 1028.1 hPa | 0 mm | - | - | - |
| 1777589104 | 6.67° C | 58% | 1028.2 hPa | 0 mm | - | - | - |
| 1777587904 | 6.67° C | 57% | 1028 hPa | 0 mm | - | - | - |
| 1777585504 | 7.22° C | 54% | 1027.9 hPa | 0 mm | - | - | - |
| 1777583104 | 7.78° C | 52% | 1027.7 hPa | 0 mm | - | - | - |
| 1777581306 | 8.89° C | 49% | 1027.7 hPa | 0 mm | - | - | - |
| 1777578304 | 10.56° C | 43% | 1027.5 hPa | 0 mm | - | - | - |
| 1777578004 | 10.56° C | 42% | 1027.4 hPa | 0 mm | - | - | - |
| 1777575904 | 11.67° C | 38% | 1027.4 hPa | 0 mm | - | - | - |
| 1777575305 | 12.22° C | 37% | 1027.2 hPa | 0 mm | - | - | - |
| 1777574105 | 12.78° C | 36% | 1027.1 hPa | 0 mm | - | - | - |
| 1777572904 | 13.33° C | 33% | 1026.7 hPa | 0 mm | - | - | - |
| 1777570504 | 14.44° C | 30% | 1026.7 hPa | 0 mm | - | - | - |
| 1777570205 | 14.44° C | 30% | 1026.7 hPa | 0 mm | - | - | - |
| 1777568404 | 15° C | 28% | 1026.7 hPa | 0 mm | - | - | - |
| 1777568104 | 15° C | 28% | 1027 hPa | 0 mm | - | - | - |
* Rain latest hour (hover to see other rain measurements)
** Current wind speed in m/s (hover to see current wind gust speed)